Time;durP1;ratioP1;P1;durP2;ratioP2;P2;SDS_P1;SDS_P2;PMS_P1;PMS_P2;Temp;Humidity;BMP_temperature;BMP_pressure;BME280_temperature;BME280_humidity;BME280_pressure;Samples;Min_cycle;Max_cycle;Signal;HPM_P1;HPM_P2
2021/11/29 00:02:08;;;;;;;64.62;27.22;;;;;;;0.42;87.17;98842.35;1759924;78;98851;-66
2021/11/29 00:04:35;;;;;;;60.28;26.20;;;;;;;0.45;87.19;98845.34;1755017;78;25770;-69
2021/11/29 00:07:01;;;;;;;59.95;26.68;;;;;;;0.48;87.20;98847.89;1745297;79;26162;-65
2021/11/29 00:09:27;;;;;;;63.02;26.15;;;;;;;0.45;87.13;98849.30;1744761;78;98539;-66
2021/11/29 00:11:53;;;;;;;52.20;24.18;;;;;;;0.43;87.14;98848.03;1747650;80;26365;-65
2021/11/29 00:14:19;;;;;;;62.83;28.23;;;;;;;0.45;87.23;98848.84;1755048;80;98617;-66
2021/11/29 00:16:46;;;;;;;63.68;26.05;;;;;;;0.46;87.24;98849.70;1748374;80;27224;-66
2021/11/29 00:19:12;;;;;;;56.98;24.20;;;;;;;0.47;87.25;98850.98;1747280;80;25775;-66
2021/11/29 00:21:38;;;;;;;58.30;24.20;;;;;;;0.45;87.26;98844.03;1744413;80;98610;-67
2021/11/29 00:24:05;;;;;;;54.15;24.98;;;;;;;0.47;87.28;98848.80;1750046;78;26428;-66
2021/11/29 00:26:32;;;;;;;60.15;25.32;;;;;;;0.47;87.29;98850.98;1743942;79;98633;-65
2021/11/29 00:28:58;;;;;;;62.38;27.05;;;;;;;0.47;87.32;98844.84;1756905;79;25738;-64
2021/11/29 00:31:24;;;;;;;61.53;25.97;;;;;;;0.47;87.32;98841.75;1746535;80;25795;-64
2021/11/29 00:33:50;;;;;;;60.35;26.52;;;;;;;0.48;87.35;98846.57;1754318;79;98395;-66
2021/11/29 00:36:16;;;;;;;61.18;25.15;;;;;;;0.49;87.36;98845.66;1718224;81;25762;-65
2021/11/29 00:38:44;;;;;;;65.08;27.50;;;;;;;0.47;87.33;98845.70;1726852;81;97728;-64
2021/11/29 00:41:10;;;;;;;60.40;25.43;;;;;;;0.49;87.41;98850.93;1756483;78;25768;-64
2021/11/29 00:43:38;;;;;;;60.78;26.45;;;;;;;0.48;87.40;98855.80;1747589;80;98736;-66
2021/11/29 00:46:04;;;;;;;59.23;24.47;;;;;;;0.49;87.41;98858.84;1743682;80;25714;-67
2021/11/29 00:48:30;;;;;;;55.20;24.65;;;;;;;0.48;87.41;98855.80;1753310;79;25874;-66
2021/11/29 00:50:57;;;;;;;52.27;23.32;;;;;;;0.46;87.39;98851.03;1758438;79;98550;-66
2021/11/29 00:53:23;;;;;;;52.98;23.22;;;;;;;0.46;87.38;98853.66;1744818;78;25787;-66
2021/11/29 00:55:49;;;;;;;52.15;24.00;;;;;;;0.45;87.38;98857.20;1745844;79;98739;-67
2021/11/29 00:58:15;;;;;;;54.38;23.42;;;;;;;0.41;87.41;98855.58;1752844;79;26017;-66
2021/11/29 01:00:41;;;;;;;55.60;23.70;;;;;;;0.42;87.45;98861.26;1750378;80;25754;-66
2021/11/29 01:03:08;;;;;;;57.80;24.82;;;;;;;0.40;87.46;98865.26;1744283;79;98602;-66
2021/11/29 01:05:34;;;;;;;52.73;21.97;;;;;;;0.40;87.48;98864.39;1755086;79;25896;-66
2021/11/29 01:08:03;;;;;;;50.88;22.07;;;;;;;0.38;87.46;98861.80;1749177;79;98716;-66
2021/11/29 01:10:30;;;;;;;51.23;22.42;;;;;;;0.37;87.45;98870.63;1751492;80;27010;-66
2021/11/29 01:12:57;;;;;;;48.78;22.37;;;;;;;0.40;87.52;98865.71;1750187;79;25918;-66
2021/11/29 01:15:28;;;;;;;49.63;20.77;;;;;;;0.40;87.51;98862.62;1754213;79;98578;-66
2021/11/29 01:17:55;;;;;;;54.88;22.70;;;;;;;0.42;87.54;98869.16;1739422;80;26159;-65
2021/11/29 01:20:21;;;;;;;52.25;24.30;;;;;;;0.43;87.59;98861.66;1744145;79;98450;-64
2021/11/29 01:22:47;;;;;;;53.65;24.05;;;;;;;0.43;87.57;98849.80;1721342;81;26687;-65
2021/11/29 01:25:14;;;;;;;48.70;22.07;;;;;;;0.45;87.62;98861.16;1719351;81;25705;-65
2021/11/29 01:27:41;;;;;;;52.00;22.42;;;;;;;0.46;87.62;98865.06;1710061;81;98540;-64
2021/11/29 01:30:10;;;;;;;46.40;21.20;;;;;;;0.46;87.61;98859.80;1729371;81;25760;-64
2021/11/29 01:32:36;;;;;;;44.93;20.00;;;;;;;0.46;87.62;98869.48;1716216;81;98725;-64
2021/11/29 01:35:03;;;;;;;43.95;20.35;;;;;;;0.45;87.67;98859.39;1722521;81;26026;-64
2021/11/29 01:37:29;;;;;;;44.30;20.50;;;;;;;0.46;87.68;98868.16;1720879;81;25914;-64
2021/11/29 01:39:55;;;;;;;38.65;17.55;;;;;;;0.47;87.73;98864.61;1718949;81;98956;-64
2021/11/29 01:42:21;;;;;;;39.13;17.73;;;;;;;0.48;87.71;98862.38;1717195;81;33565;-64
2021/11/29 01:44:48;;;;;;;38.78;16.97;;;;;;;0.50;87.73;98864.06;1718959;81;98545;-64
2021/11/29 01:47:13;;;;;;;45.00;19.80;;;;;;;0.51;87.75;98869.73;1720006;81;26070;-64
2021/11/29 01:49:39;;;;;;;42.27;18.30;;;;;;;0.50;87.73;98868.47;1715087;81;98844;-64
2021/11/29 01:52:07;;;;;;;43.02;18.40;;;;;;;0.51;87.83;98868.88;1721940;81;27409;-64
2021/11/29 01:54:33;;;;;;;38.85;18.40;;;;;;;0.50;87.78;98865.37;1715890;81;25788;-64
2021/11/29 01:56:59;;;;;;;37.80;17.15;;;;;;;0.50;87.80;98870.66;1718204;81;98429;-64
2021/11/29 01:59:25;;;;;;;41.88;19.05;;;;;;;0.50;87.74;98867.16;1725008;81;26460;-64
2021/11/29 02:01:51;;;;;;;38.23;17.40;;;;;;;0.50;87.83;98866.70;1713977;81;98858;-64
2021/11/29 02:04:18;;;;;;;32.03;15.40;;;;;;;0.51;87.79;98861.84;1717362;81;27411;-65
2021/11/29 02:06:44;;;;;;;35.95;16.52;;;;;;;0.48;87.75;98868.52;1721432;81;26116;-64
2021/11/29 02:09:11;;;;;;;38.50;17.30;;;;;;;0.48;87.83;98865.02;1718443;81;99088;-64
2021/11/29 02:11:39;;;;;;;35.28;16.90;;;;;;;0.47;87.89;98858.89;1717024;81;26717;-64
2021/11/29 02:14:06;;;;;;;36.10;15.45;;;;;;;0.49;87.97;98862.34;1723553;81;99232;-64
2021/11/29 02:16:33;;;;;;;35.28;16.23;;;;;;;0.52;88.01;98863.56;1716046;81;27447;-64
2021/11/29 02:18:59;;;;;;;37.08;15.83;;;;;;;0.51;87.95;98868.42;1714028;81;25846;-64
2021/11/29 02:21:30;;;;;;;36.42;16.35;;;;;;;0.51;87.95;98868.42;1720792;80;98942;-64
2021/11/29 02:24:02;;;;;;;;;;;;;;;0.53;88.03;98862.65;1748343;80;26096;-65
2021/11/29 02:26:31;;;;;;;36.28;15.45;;;;;;;0.56;88.06;98865.64;1747432;80;84467;-64
2021/11/29 02:29:15;;;;;;;36.95;15.38;;;;;;;0.56;88.04;98866.96;1755241;80;27467;-66
2021/11/29 02:31:46;;;;;;;36.53;16.40;;;;;;;0.57;87.99;98870.01;1738740;79;98765;-64
2021/11/29 02:34:20;;;;;;;39.67;15.83;;;;;;;0.55;88.03;98871.83;1747881;80;26657;-64
2021/11/29 02:36:48;;;;;;;30.10;14.78;;;;;;;0.57;88.05;98870.87;1746043;79;26953;-65
2021/11/29 02:39:17;;;;;;;32.48;16.02;;;;;;;0.57;88.04;98868.23;1755201;79;98498;-65
2021/11/29 02:41:46;;;;;;;39.15;17.40;;;;;;;0.55;88.07;98867.42;1745335;80;28132;-65
2021/11/29 02:44:12;;;;;;;34.05;15.58;;;;;;;0.57;88.08;98867.38;1739840;80;98752;-65
2021/11/29 02:46:39;;;;;;;33.20;15.25;;;;;;;0.58;88.05;98863.82;1747105;79;25764;-65
2021/11/29 02:49:08;;;;;;;37.75;15.72;;;;;;;0.55;87.98;98862.14;1746644;80;26008;-65
2021/11/29 02:51:45;;;;;;;32.90;15.83;;;;;;;0.56;88.04;98862.55;1746306;78;98583;-65
2021/11/29 02:54:26;;;;;;;33.40;15.40;;;;;;;0.55;88.03;98866.55;1745185;79;29541;-65
2021/11/29 02:56:57;;;;;;;30.12;14.53;;;;;;;0.56;88.10;98869.14;1749549;80;98585;-65
2021/11/29 02:59:27;;;;;;;26.73;12.93;;;;;;;0.59;88.12;98870.36;1747555;80;25705;-65
2021/11/29 03:02:00;;;;;;;26.97;13.43;;;;;;;0.57;88.10;98868.23;1757439;79;98657;-65
2021/11/29 03:04:30;;;;;;;29.92;14.65;;;;;;;0.54;88.11;98869.64;1717494;81;25726;-65
2021/11/29 03:06:57;;;;;;;30.00;12.70;;;;;;;0.53;88.06;98867.92;1714556;81;27481;-65
2021/11/29 03:09:24;;;;;;;22.82;11.85;;;;;;;0.53;88.15;98861.33;1722998;81;98591;-65
2021/11/29 03:11:52;;;;;;;22.35;11.73;;;;;;;0.55;88.14;98870.51;1724356;80;25927;-65
2021/11/29 03:14:19;;;;;;;22.98;11.90;;;;;;;0.54;88.17;98860.88;1718922;81;98641;-65
2021/11/29 03:16:46;;;;;;;23.40;11.43;;;;;;;0.51;88.17;98859.66;1717702;81;25745;-65
2021/11/29 03:19:12;;;;;;;27.17;11.93;;;;;;;0.49;88.21;98858.38;1739233;80;27378;-65
2021/11/29 03:21:39;;;;;;;19.80;9.83;;;;;;;0.51;88.27;98849.11;1750782;79;98676;-65
2021/11/29 03:24:09;;;;;;;21.10;10.38;;;;;;;0.53;88.25;98855.20;1736083;80;25917;-65
2021/11/29 03:26:37;;;;;;;17.03;8.83;;;;;;;0.51;88.20;98859.20;1738140;80;98534;-65
2021/11/29 03:29:08;;;;;;;21.75;11.30;;;;;;;0.50;88.23;98855.29;1731005;80;26718;-65
2021/11/29 03:31:36;;;;;;;24.47;10.68;;;;;;;0.48;88.27;98860.61;1733574;80;28575;-64
2021/11/29 03:34:06;;;;;;;26.40;11.50;;;;;;;0.51;88.34;98851.75;1728454;80;98944;-64
2021/11/29 03:36:35;;;;;;;21.73;11.68;;;;;;;0.52;88.35;98855.65;1734157;80;25723;-64
2021/11/29 03:39:06;;;;;;;22.40;10.38;;;;;;;0.54;88.34;98868.33;1736985;80;98616;-65
2021/11/29 03:41:33;;;;;;;30.23;12.63;;;;;;;0.53;88.34;98863.11;1732659;80;25754;-65
2021/11/29 03:43:59;;;;;;;32.45;14.60;;;;;;;0.52;88.39;98865.33;1713085;81;98703;-64
2021/11/29 03:46:25;;;;;;;29.05;13.65;;;;;;;0.53;88.43;98862.65;1713629;81;25827;-64
2021/11/29 03:48:51;;;;;;;33.48;14.28;;;;;;;0.54;88.38;98863.52;1738839;80;30969;-65
2021/11/29 03:51:17;;;;;;;35.43;15.15;;;;;;;0.54;88.43;98864.83;1749272;79;98565;-64
2021/11/29 03:53:44;;;;;;;36.08;16.57;;;;;;;0.54;88.43;98864.38;1739950;80;26008;-64
2021/11/29 03:56:10;;;;;;;32.42;14.03;;;;;;;0.54;88.44;98867.47;1743178;79;99173;-65
2021/11/29 03:58:37;;;;;;;29.85;13.18;;;;;;;0.53;88.44;98868.38;1745361;80;25764;-64
2021/11/29 04:01:04;;;;;;;31.42;13.58;;;;;;;0.54;88.47;98868.33;1752491;80;26431;-64
2021/11/29 04:03:32;;;;;;;33.13;14.28;;;;;;;0.53;88.46;98861.33;1740706;80;98635;-64
2021/11/29 04:05:58;;;;;;;35.95;15.00;;;;;;;0.54;88.46;98876.69;1740234;80;26623;-64
2021/11/29 04:08:25;;;;;;;37.35;15.00;;;;;;;0.55;88.49;98878.42;1741374;79;98697;-64
2021/11/29 04:10:53;;;;;;;33.30;14.87;;;;;;;0.54;88.47;98878.01;1742558;80;25742;-64
2021/11/29 04:13:19;;;;;;;37.13;13.95;;;;;;;0.52;88.46;98875.42;1716606;81;25699;-64
2021/11/29 04:15:45;;;;;;;32.35;14.07;;;;;;;0.55;88.56;98881.91;1710783;80;98648;-64
2021/11/29 04:18:11;;;;;;;30.68;13.13;;;;;;;0.54;88.54;98889.88;1737754;80;25794;-64
2021/11/29 04:20:37;;;;;;;34.23;13.83;;;;;;;0.55;88.57;98883.23;1743424;78;98681;-64
2021/11/29 04:23:04;;;;;;;36.38;14.87;;;;;;;0.54;88.48;98889.41;1748217;79;33409;-64
2021/11/29 04:25:39;;;;;;;34.43;15.10;;;;;;;0.52;88.53;98891.23;1743903;80;25675;-64
2021/11/29 04:27:59;;;;;;;35.98;13.72;;;;;;;0.55;88.57;98895.09;1746246;79;98666;-64
2021/11/29 04:30:26;;;;;;;30.52;13.83;;;;;;;0.56;88.57;98890.69;1724869;81;25806;-65
2021/11/29 04:32:55;;;;;;;40.63;15.63;;;;;;;0.60;88.58;98888.36;1716133;80;98584;-64
2021/11/29 04:35:21;;;;;;;38.83;15.98;;;;;;;0.60;88.56;98898.91;1663795;84;25816;-64
2021/11/29 04:37:47;;;;;;;35.50;14.80;;;;;;;0.60;88.57;98892.31;1672926;83;98714;-64
2021/11/29 04:40:14;;;;;;;33.38;13.90;;;;;;;0.58;88.54;98893.69;1725074;81;26013;-64
2021/11/29 04:42:41;;;;;;;32.30;13.28;;;;;;;0.58;88.57;98896.78;1694333;82;26122;-64
2021/11/29 04:45:08;;;;;;;36.55;16.05;;;;;;;0.59;88.65;98902.45;1700050;82;98609;-66
2021/11/29 04:47:34;;;;;;;33.33;13.98;;;;;;;0.55;88.64;98902.14;1716380;81;25885;-66
2021/11/29 04:50:01;;;;;;;32.45;13.65;;;;;;;0.55;88.67;98905.64;1719415;81;98700;-64
2021/11/29 04:52:27;;;;;;;34.30;14.95;;;;;;;0.55;88.69;98899.50;1722866;81;26006;-64
2021/11/29 04:54:53;;;;;;;31.75;14.35;;;;;;;0.56;88.70;98897.28;1714088;81;25851;-64
2021/11/29 04:57:19;;;;;;;34.58;15.08;;;;;;;0.56;88.71;98899.45;1713829;81;98703;-64
2021/11/29 04:59:46;;;;;;;36.08;14.83;;;;;;;0.56;88.67;98906.05;1693124;81;25892;-64
2021/11/29 05:02:12;;;;;;;41.10;16.02;;;;;;;0.54;88.68;98909.64;1708232;82;98704;-64
2021/11/29 05:04:38;;;;;;;31.52;14.43;;;;;;;0.55;88.72;98912.23;1693077;82;26497;-63
2021/11/29 05:07:04;;;;;;;38.10;15.53;;;;;;;0.56;88.72;98911.78;1686474;82;25691;-64
2021/11/29 05:09:30;;;;;;;36.35;14.68;;;;;;;0.52;88.69;98911.46;1703723;81;99003;-64
2021/11/29 05:11:56;;;;;;;35.78;14.75;;;;;;;0.51;88.76;98909.73;1721178;81;25667;-64
2021/11/29 05:14:22;;;;;;;38.63;17.10;;;;;;;0.49;88.76;98911.55;1718464;81;98714;-64
2021/11/29 05:16:48;;;;;;;36.08;16.35;;;;;;;0.49;88.83;98922.96;1726240;81;26074;-64
2021/11/29 05:19:15;;;;;;;35.03;16.67;;;;;;;0.48;88.82;98921.69;1717043;81;26457;-64
2021/11/29 05:21:41;;;;;;;37.85;15.35;;;;;;;0.45;88.84;98925.28;1713741;81;98439;-65
2021/11/29 05:24:07;;;;;;;38.80;15.95;;;;;;;0.46;88.89;98918.23;1725903;81;33676;-65
2021/11/29 05:26:33;;;;;;;37.05;15.10;;;;;;;0.43;88.87;98917.02;1716019;80;98558;-65
2021/11/29 05:29:00;;;;;;;37.70;16.95;;;;;;;0.39;88.91;98921.97;1722380;81;25992;-65
2021/11/29 05:31:27;;;;;;;36.13;14.58;;;;;;;0.40;88.97;98926.33;1709115;81;25755;-64
2021/11/29 05:33:53;;;;;;;36.35;15.65;;;;;;;0.37;88.97;98928.59;1713531;81;98478;-64
2021/11/29 05:36:20;;;;;;;37.17;16.95;;;;;;;0.36;88.96;98926.01;1717586;81;25903;-64
2021/11/29 05:38:46;;;;;;;39.67;16.90;;;;;;;0.35;88.96;98924.28;1713400;81;98790;-64
2021/11/29 05:41:12;;;;;;;42.90;17.20;;;;;;;0.33;88.99;98941.00;1715367;81;26033;-65
2021/11/29 05:43:39;;;;;;;37.00;15.20;;;;;;;0.31;89.01;98934.91;1714535;81;25780;-65
2021/11/29 05:46:07;;;;;;;43.05;16.77;;;;;;;0.28;89.00;98940.27;1718081;81;98428;-64
2021/11/29 05:48:34;;;;;;;45.48;18.05;;;;;;;0.26;89.05;98937.27;1725510;81;26191;-64
2021/11/29 05:51:01;;;;;;;42.65;18.73;;;;;;;0.26;89.11;98938.14;1716939;81;98467;-64
2021/11/29 05:53:28;;;;;;;46.10;18.15;;;;;;;0.25;89.07;98947.41;1688156;81;26925;-64
2021/11/29 05:55:55;;;;;;;46.58;17.87;;;;;;;0.25;89.10;98943.45;1649295;84;98783;-64
2021/11/29 05:58:21;;;;;;;49.42;20.35;;;;;;;0.21;89.12;98931.27;1649446;84;28106;-64
2021/11/29 06:00:48;;;;;;;41.70;16.75;;;;;;;0.24;89.11;98949.63;1644780;85;34058;-64
2021/11/29 06:03:14;;;;;;;54.25;22.00;;;;;;;0.27;89.21;98949.54;1660431;84;98607;-65
2021/11/29 06:05:40;;;;;;;59.10;21.50;;;;;;;0.24;89.17;98954.45;1663446;84;28277;-65
2021/11/29 06:08:06;;;;;;;56.00;22.05;;;;;;;0.26;89.21;98949.13;1666362;84;98651;-65
2021/11/29 06:10:32;;;;;;;53.40;19.20;;;;;;;0.21;89.22;98951.89;1655122;83;28105;-64
2021/11/29 06:12:58;;;;;;;55.43;21.45;;;;;;;0.27;89.22;98945.59;1651655;84;34097;-65
2021/11/29 06:15:24;;;;;;;56.88;21.10;;;;;;;0.27;89.22;98951.72;1697304;81;98730;-65
2021/11/29 06:17:50;;;;;;;57.80;22.75;;;;;;;0.28;89.27;98960.03;1725845;81;26871;-65
2021/11/29 06:20:22;;;;;;;56.00;22.73;;;;;;;0.29;89.27;98969.67;1724220;81;98777;-65
2021/11/29 06:22:52;;;;;;;55.10;21.70;;;;;;;0.30;89.23;98974.03;1716067;81;27321;-65
2021/11/29 06:25:21;;;;;;;52.13;19.92;;;;;;;0.33;89.26;98973.94;1714252;81;27168;-65
2021/11/29 06:27:49;;;;;;;50.17;20.57;;;;;;;0.34;89.29;98972.17;1701189;82;98565;-65
2021/11/29 06:30:17;;;;;;;57.23;21.77;;;;;;;0.32;89.29;98969.58;1712636;80;26725;-68
2021/11/29 06:32:43;;;;;;;52.53;20.48;;;;;;;0.36;89.32;98977.39;1735649;80;98715;-67
2021/11/29 06:35:11;;;;;;;48.70;19.55;;;;;;;0.37;89.33;98980.45;1741244;80;27987;-67
2021/11/29 06:37:38;;;;;;;66.92;25.30;;;;;;;0.38;89.35;98984.35;1737073;81;25690;-67
2021/11/29 06:40:07;;;;;;;64.55;23.32;;;;;;;0.38;89.33;98979.53;1735417;80;98439;-64
2021/11/29 06:42:33;;;;;;;66.37;25.43;;;;;;;0.41;89.38;98984.72;1734560;80;26103;-64
2021/11/29 06:45:00;;;;;;;54.58;22.13;;;;;;;0.41;89.36;98982.08;1739638;80;98936;-64
2021/11/29 06:47:27;;;;;;;61.18;23.60;;;;;;;0.42;89.32;98997.85;1734995;80;27396;-65
2021/11/29 06:49:53;;;;;;;64.30;24.75;;;;;;;0.44;89.33;99000.45;1732539;80;98665;-65
2021/11/29 06:52:19;;;;;;;61.00;23.83;;;;;;;0.45;89.35;99010.08;1737558;81;31723;-65
2021/11/29 06:54:48;;;;;;;57.90;23.12;;;;;;;0.46;89.31;99005.22;1730716;81;26480;-65
2021/11/29 06:57:15;;;;;;;63.02;23.67;;;;;;;0.45;89.26;99003.48;1731482;81;98685;-65
2021/11/29 06:59:41;;;;;;;55.73;23.32;;;;;;;0.44;89.26;99005.26;1734450;80;29254;-66
2021/11/29 07:02:07;;;;;;;68.05;25.15;;;;;;;0.44;89.30;99005.26;1733593;80;98826;-65
2021/11/29 07:04:33;;;;;;;72.75;24.63;;;;;;;0.43;89.32;99006.17;1737955;81;30986;-64
2021/11/29 07:06:59;;;;;;;68.15;24.45;;;;;;;0.43;89.33;99008.80;1731990;80;26807;-64
2021/11/29 07:09:26;;;;;;;64.75;24.67;;;;;;;0.45;89.32;99012.71;1728630;80;98633;-64
2021/11/29 07:11:52;;;;;;;60.12;22.77;;;;;;;0.45;89.32;99019.30;1738885;80;27421;-64
2021/11/29 07:14:19;;;;;;;65.22;23.83;;;;;;;0.43;89.27;99011.89;1735822;81;98671;-63
2021/11/29 07:16:48;;;;;;;60.33;26.82;;;;;;;0.43;89.31;99019.80;1738242;81;26292;-64
2021/11/29 07:19:16;;;;;;;59.38;24.87;;;;;;;0.43;89.33;99019.34;1733588;81;25737;-64
2021/11/29 07:21:44;;;;;;;57.00;21.07;;;;;;;0.43;89.32;99019.80;1730979;81;98614;-62
2021/11/29 07:24:11;;;;;;;59.73;24.00;;;;;;;0.43;89.36;99023.30;1730993;80;27460;-61
2021/11/29 07:26:38;;;;;;;53.63;21.48;;;;;;;0.43;89.33;99042.20;1728005;81;98983;-63
2021/11/29 07:29:04;;;;;;;60.08;23.00;;;;;;;0.42;89.33;99026.84;1740608;80;25853;-66
2021/11/29 07:31:32;;;;;;;59.38;23.35;;;;;;;0.41;89.31;99021.16;1726542;81;25763;-64
2021/11/29 07:33:58;;;;;;;62.23;23.47;;;;;;;0.42;89.34;99023.34;1733239;81;98614;-63
2021/11/29 07:36:25;;;;;;;60.65;23.47;;;;;;;0.40;89.32;99027.34;1735166;80;29492;-64
2021/11/29 07:38:51;;;;;;;70.37;22.07;;;;;;;0.41;89.30;99032.16;1735920;81;98655;-64
2021/11/29 07:41:17;;;;;;;60.48;22.80;;;;;;;0.42;89.28;99037.84;1736429;80;25849;-64
2021/11/29 07:43:43;;;;;;;52.50;21.20;;;;;;;0.42;89.27;99043.11;1738316;81;28137;-64
2021/11/29 07:46:10;;;;;;;57.38;23.15;;;;;;;0.40;89.23;99048.42;1733567;81;98442;-67
2021/11/29 07:48:35;;;;;;;54.85;23.10;;;;;;;0.38;89.24;99055.51;1736433;81;27395;-67
2021/11/29 07:51:02;;;;;;;46.75;20.77;;;;;;;0.36;89.23;99055.14;1731119;81;98560;-67
2021/11/29 07:53:28;;;;;;;57.33;20.57;;;;;;;0.35;89.22;99055.59;1732454;81;25720;-64
2021/11/29 07:55:53;;;;;;;55.80;22.95;;;;;;;0.33;89.23;99059.59;1736399;81;99206;-64
2021/11/29 07:58:21;;;;;;;62.53;23.02;;;;;;;0.34;89.20;99063.09;1733864;81;25934;-66
2021/11/29 08:00:49;;;;;;;64.90;22.58;;;;;;;0.36;89.21;99063.91;1739993;80;28046;-64
2021/11/29 08:03:15;;;;;;;65.87;23.62;;;;;;;0.40;89.17;99071.28;1738463;80;98582;-67
2021/11/29 08:05:43;;;;;;;62.90;23.40;;;;;;;0.43;89.17;99067.24;1734411;80;30555;-67
2021/11/29 08:08:10;;;;;;;60.55;24.50;;;;;;;0.44;89.09;99066.34;1734555;80;98836;-67
2021/11/29 08:10:38;;;;;;;54.42;20.45;;;;;;;0.44;89.07;99068.97;1739135;80;25952;-68
2021/11/29 08:13:08;;;;;;;59.63;24.37;;;;;;;0.43;88.99;99077.33;1735487;80;27461;-68
2021/11/29 08:15:36;;;;;;;59.88;23.85;;;;;;;0.38;88.95;99074.41;1729911;80;98533;-69
2021/11/29 08:18:06;;;;;;;61.98;23.75;;;;;;;0.39;89.01;99080.09;1742056;80;25967;-69
2021/11/29 08:20:33;;;;;;;56.77;22.20;;;;;;;0.37;88.90;99077.95;1690899;82;98524;-66
2021/11/29 08:22:59;;;;;;;56.70;21.73;;;;;;;0.35;88.91;99086.35;1740174;80;25946;-66
2021/11/29 08:25:26;;;;;;;58.73;21.65;;;;;;;0.38;88.96;99082.31;1739223;80;27394;-69
2021/11/29 08:27:52;;;;;;;55.35;21.80;;;;;;;0.38;88.89;99084.95;1739271;80;98913;-66
2021/11/29 08:30:22;;;;;;;62.55;24.25;;;;;;;0.39;88.86;99088.00;1732261;81;26470;-64
2021/11/29 08:32:50;;;;;;;64.45;22.20;;;;;;;0.40;88.89;99089.73;1735104;81;98616;-65
2021/11/29 08:35:20;;;;;;;58.70;24.15;;;;;;;0.39;88.84;99082.73;1733648;81;26337;-65
2021/11/29 08:37:49;;;;;;;70.52;23.92;;;;;;;0.40;88.87;99084.00;1734130;80;98663;-65
2021/11/29 08:40:26;;;;;;;53.38;20.08;;;;;;;0.42;88.88;99087.46;1735929;80;26439;-68
2021/11/29 08:42:50;;;;;;;55.58;21.70;;;;;;;0.43;88.79;99086.55;1735215;80;25839;-70
2021/11/29 08:45:17;;;;;;;56.23;23.15;;;;;;;0.38;88.73;99081.00;1739316;80;99074;-69
2021/11/29 08:47:43;;;;;;;55.17;20.10;;;;;;;0.37;88.75;99091.12;1733334;81;25817;-70
2021/11/29 08:50:10;;;;;;;58.98;21.37;;;;;;;0.35;88.74;99096.89;1738057;80;98793;-70
2021/11/29 08:52:37;;;;;;;58.85;24.55;;;;;;;0.35;88.73;99096.89;1736892;81;25752;-68
2021/11/29 08:55:06;;;;;;;63.10;24.23;;;;;;;0.30;88.69;99087.34;1736211;81;25754;-68
2021/11/29 08:57:33;;;;;;;65.45;24.45;;;;;;;0.29;88.69;99093.52;1700592;82;98955;-67
2021/11/29 08:59:59;;;;;;;56.08;20.15;;;;;;;0.30;88.72;99097.88;1740377;80;25760;-69
2021/11/29 09:02:26;;;;;;;69.80;24.87;;;;;;;0.32;88.70;99093.44;1728160;80;98834;-69
2021/11/29 09:04:54;;;;;;;70.87;24.45;;;;;;;0.26;88.60;99092.28;1738031;80;26112;-69
2021/11/29 09:07:20;;;;;;;63.10;25.25;;;;;;;0.26;88.62;99098.00;1741721;80;25979;-68
2021/11/29 09:09:46;;;;;;;59.25;25.27;;;;;;;0.30;88.67;99107.56;1740468;80;98678;-68
2021/11/29 09:12:14;;;;;;;66.17;20.92;;;;;;;0.29;88.62;99108.46;1740504;80;25789;-67
2021/11/29 09:14:42;;;;;;;57.13;21.33;;;;;;;0.28;88.60;99106.28;1736231;80;98548;-67
2021/11/29 09:17:09;;;;;;;67.53;23.38;;;;;;;0.28;88.60;99106.28;1729976;80;25860;-67
2021/11/29 09:19:37;;;;;;;56.37;22.35;;;;;;;0.29;88.61;99104.52;1733569;80;25883;-69
2021/11/29 09:22:03;;;;;;;61.88;21.73;;;;;;;0.30;88.57;99113.69;1733479;80;98427;-70
2021/11/29 09:24:29;;;;;;;56.75;21.93;;;;;;;0.31;88.55;99099.61;1736695;81;25904;-68
2021/11/29 09:26:58;;;;;;;55.08;20.77;;;;;;;0.31;88.50;99107.52;1721205;81;98984;-68
2021/11/29 09:29:24;;;;;;;52.33;19.50;;;;;;;0.33;88.54;99110.11;1721347;81;25829;-67
2021/11/29 09:31:50;;;;;;;53.25;19.57;;;;;;;0.35;88.49;99106.12;1722404;80;98662;-72
2021/11/29 09:34:16;;;;;;;45.73;19.00;;;;;;;0.31;88.38;99099.61;1723183;81;26950;-74
2021/11/29 09:36:43;;;;;;;54.95;20.37;;;;;;;0.31;88.42;99102.25;1727165;81;25789;-69
2021/11/29 09:39:09;;;;;;;52.08;18.57;;;;;;;0.33;88.39;99093.84;1733141;81;98639;-69
2021/11/29 09:41:36;;;;;;;42.60;18.70;;;;;;;0.38;88.38;99104.27;1722693;81;25856;-69
2021/11/29 09:44:04;;;;;;;44.18;18.35;;;;;;;0.38;88.27;99099.45;1721531;81;98734;-70
2021/11/29 09:46:32;;;;;;;52.90;20.95;;;;;;;0.38;88.26;99093.72;1724530;81;26059;-70
2021/11/29 09:49:03;;;;;;;51.45;21.57;;;;;;;0.40;88.22;99094.55;1739797;80;25809;-70
2021/11/29 09:51:30;;;;;;;53.42;21.23;;;;;;;0.43;88.18;99094.47;1724348;81;98632;-67
2021/11/29 09:53:56;;;;;;;50.38;21.12;;;;;;;0.43;88.17;99093.14;1731688;81;26449;-66
2021/11/29 09:56:23;;;;;;;52.78;18.82;;;;;;;0.46;88.10;99096.15;1723060;81;99199;-70
2021/11/29 09:58:49;;;;;;;51.28;20.85;;;;;;;0.43;87.98;99094.47;1732006;81;26002;-68
2021/11/29 10:01:17;;;;;;;55.30;22.60;;;;;;;0.44;88.05;99101.92;1734083;81;26341;-68
2021/11/29 10:03:43;;;;;;;52.53;22.42;;;;;;;0.45;88.01;99107.15;1741893;79;98919;-68
2021/11/29 10:06:09;;;;;;;51.60;21.80;;;;;;;0.43;87.87;99106.33;1737484;80;25966;-68
2021/11/29 10:08:39;;;;;;;48.25;20.80;;;;;;;0.42;87.91;99099.78;1740344;79;98567;-69
2021/11/29 10:11:17;;;;;;;46.28;19.90;;;;;;;0.42;87.91;99107.69;1747275;80;27251;-68
2021/11/29 10:14:01;;;;;;;47.55;19.27;;;;;;;0.42;87.77;99106.37;1735881;80;26504;-65
2021/11/29 10:16:32;;;;;;;37.05;16.52;;;;;;;0.39;87.74;99101.17;1735677;80;98394;-66
2021/11/29 10:18:59;;;;;;;47.55;17.92;;;;;;;0.36;87.70;99105.21;1737837;80;26706;-67
2021/11/29 10:21:25;;;;;;;51.53;18.87;;;;;;;0.30;87.64;99097.88;1734103;80;98705;-66
2021/11/29 10:23:57;;;;;;;45.15;18.62;;;;;;;0.33;87.72;99092.53;1732982;80;26395;-67
2021/11/29 10:26:28;;;;;;;46.65;17.57;;;;;;;0.37;87.56;99093.77;1732052;80;99102;-68
2021/11/29 10:28:59;;;;;;;48.60;18.42;;;;;;;0.32;87.45;99088.62;1729172;80;28717;-69
2021/11/29 10:31:29;;;;;;;;;;;;;;;0.32;87.53;99097.39;1720822;81;25703;-69
2021/11/29 10:34:19;;;;;;;47.95;18.37;;;;;;;0.41;87.64;99094.09;1720916;81;83662;-67
2021/11/29 10:36:55;;;;;;;54.27;19.27;;;;;;;0.44;87.53;99092.23;1722393;81;27097;-69
2021/11/29 10:39:29;;;;;;;48.15;18.92;;;;;;;0.43;87.40;99089.64;1722855;81;98615;-67
2021/11/29 10:42:06;;;;;;;32.80;15.70;;;;;;;0.39;87.40;99094.59;1722254;81;27518;-69
2021/11/29 10:44:38;;;;;;;39.45;17.17;;;;;;;0.36;87.35;99090.27;1720571;81;98628;-67
2021/11/29 10:47:12;;;;;;;43.45;16.85;;;;;;;0.36;87.33;99094.67;1723901;81;25801;-65
2021/11/29 10:49:46;;;;;;;37.93;15.70;;;;;;;0.35;87.29;99091.17;1718879;81;25804;-68
2021/11/29 10:52:24;;;;;;;28.15;14.38;;;;;;;0.36;87.24;99095.98;1720852;81;98500;-66
2021/11/29 10:54:53;;;;;;;37.78;15.40;;;;;;;0.36;87.13;99093.35;1722352;81;28273;-66
2021/11/29 10:57:20;;;;;;;34.88;15.10;;;;;;;0.35;87.12;99085.90;1719870;81;98787;-65
2021/11/29 10:59:49;;;;;;;39.75;17.02;;;;;;;0.39;87.16;99086.68;1721069;82;25779;-66
2021/11/29 11:02:20;;;;;;;36.00;16.12;;;;;;;0.48;87.19;99086.43;1719058;81;98597;-67
2021/11/29 11:05:03;;;;;;;34.05;16.40;;;;;;;0.52;87.02;99081.48;1725002;81;25788;-66
2021/11/29 11:07:34;;;;;;;35.50;16.37;;;;;;;0.53;86.96;99080.13;1721799;82;27568;-68
2021/11/29 11:10:02;;;;;;;37.10;15.53;;;;;;;0.52;86.67;99077.53;1726851;81;98562;-67
2021/11/29 11:12:33;;;;;;;33.70;14.68;;;;;;;0.55;86.73;99079.63;1745319;80;26572;-67
2021/11/29 11:15:05;;;;;;;34.60;14.83;;;;;;;0.55;86.62;99073.03;1746759;80;98632;-69
2021/11/29 11:17:32;;;;;;;33.53;16.45;;;;;;;0.58;86.64;99080.00;1741051;80;26017;-70
2021/11/29 11:20:03;;;;;;;33.70;15.50;;;;;;;0.60;86.49;99083.00;1745242;80;27427;-69
2021/11/29 11:22:34;;;;;;;;;;;;;;;0.61;86.47;99075.95;1730859;80;97994;-69
2021/11/29 11:25:10;;;;;;;43.17;18.92;;;;;;;0.56;86.32;99076.09;1738762;79;26511;-68
2021/11/29 11:27:53;;;;;;;44.75;18.52;;;;;;;0.52;86.33;99072.26;1735550;80;98857;-65
2021/11/29 11:30:21;;;;;;;39.88;17.67;;;;;;;0.55;86.31;99074.36;1731901;79;25850;-67